RZO174 LPPD-LPPR
Flight info
| Callsign | RZO174 |
|---|---|
| Flight time | 1h 57m |
| Altitude | 37000 |
| Route | BEKUN DCT LENSI DCT ERPES/N0426F380 DCT SOPOP DCT ASMOV |
| Aircraft | A320/M-SDE1FGHIRWXY/S |
Departure
| Time | 2026-05-07 20:19 |
|---|---|
| Airport | João Paulo II Airport (LPPD) |
Arrival
| Time | 2026-05-07 22:16 |
|---|---|
| Airport | Francisco de Sá Carneiro Airport (LPPR) |
| Time | Latitude | Longitude | Altitude | Speed | Heading |
|---|---|---|---|---|---|
| 2026-05-07 19:51 | 37.74829 | -25.70937 | 272 ft | 0 kts | 22° |
| 2026-05-07 20:04 | 37.74827 | -25.70939 | 271 ft | 3 kts | 22° |
| 2026-05-07 20:04 | 37.74802 | -25.70951 | 271 ft | 4 kts | 26° |
| 2026-05-07 20:04 | 37.74780 | -25.70969 | 271 ft | 4 kts | 48° |
| 2026-05-07 20:04 | 37.74768 | -25.70996 | 274 ft | 4 kts | 96° |
| 2026-05-07 20:05 | 37.74771 | -25.71011 | 276 ft | 1 kts | 112° |
| 2026-05-07 20:05 | 37.74771 | -25.71012 | 276 ft | 0 kts | 112° |
| 2026-05-07 20:07 | 37.74770 | -25.71008 | 277 ft | 2 kts | 112° |
| 2026-05-07 20:07 | 37.74757 | -25.70967 | 255 ft | 8 kts | 111° |
| 2026-05-07 20:07 | 37.74732 | -25.70887 | 273 ft | 11 kts | 111° |
| 2026-05-07 20:08 | 37.74698 | -25.70783 | 272 ft | 15 kts | 112° |
| 2026-05-07 20:08 | 37.74655 | -25.70641 | 271 ft | 18 kts | 111° |
| 2026-05-07 20:08 | 37.74620 | -25.70534 | 275 ft | 12 kts | 115° |
| 2026-05-07 20:08 | 37.74572 | -25.70446 | 267 ft | 14 kts | 134° |
| 2026-05-07 20:09 | 37.74513 | -25.70382 | 261 ft | 0 kts | 141° |
| 2026-05-07 20:13 | 37.74509 | -25.70378 | 261 ft | 3 kts | 141° |
| 2026-05-07 20:13 | 37.74479 | -25.70348 | 258 ft | 8 kts | 142° |
| 2026-05-07 20:13 | 37.74424 | -25.70295 | 253 ft | 12 kts | 143° |
| 2026-05-07 20:14 | 37.74351 | -25.70201 | 245 ft | 17 kts | 127° |
| 2026-05-07 20:14 | 37.74294 | -25.70066 | 240 ft | 18 kts | 112° |
| 2026-05-07 20:14 | 37.74245 | -25.69911 | 235 ft | 20 kts | 111° |
| 2026-05-07 20:14 | 37.74192 | -25.69740 | 231 ft | 21 kts | 112° |
| 2026-05-07 20:15 | 37.74130 | -25.69546 | 224 ft | 27 kts | 111° |
| 2026-05-07 20:15 | 37.74062 | -25.69327 | 220 ft | 27 kts | 111° |
| 2026-05-07 20:15 | 37.73991 | -25.69102 | 205 ft | 27 kts | 111° |
| 2026-05-07 20:15 | 37.73923 | -25.68887 | 196 ft | 24 kts | 111° |
| 2026-05-07 20:16 | 37.73854 | -25.68679 | 193 ft | 19 kts | 110° |
| 2026-05-07 20:16 | 37.73798 | -25.68574 | 184 ft | 14 kts | 146° |
| 2026-05-07 20:16 | 37.73748 | -25.68532 | 190 ft | 7 kts | 129° |
| 2026-05-07 20:16 | 37.73747 | -25.68480 | 190 ft | 5 kts | 61° |
| 2026-05-07 20:17 | 37.73774 | -25.68465 | 188 ft | 5 kts | 1° |
| 2026-05-07 20:17 | 37.73804 | -25.68510 | 187 ft | 8 kts | 289° |
| 2026-05-07 20:17 | 37.73812 | -25.68538 | 188 ft | 0 kts | 290° |
| 2026-05-07 20:18 | 37.73862 | -25.68696 | 194 ft | 55 kts | 292° |
| 2026-05-07 20:18 | 37.74086 | -25.69404 | 222 ft | 115 kts | 292° |
| 2026-05-07 20:18 | 37.74430 | -25.70526 | 383 ft | 148 kts | 291° |
| 2026-05-07 20:19 | 37.74730 | -25.71743 | 1089 ft | 146 kts | 288° |
| 2026-05-07 20:19 | 37.74830 | -25.73031 | 1830 ft | 149 kts | 282° |
| 2026-05-07 20:19 | 37.74897 | -25.74375 | 2366 ft | 164 kts | 283° |
| 2026-05-07 20:19 | 37.75037 | -25.75936 | 2523 ft | 195 kts | 285° |
| 2026-05-07 20:20 | 37.75244 | -25.77776 | 2801 ft | 225 kts | 284° |
| 2026-05-07 20:20 | 37.75690 | -25.79688 | 3481 ft | 227 kts | 308° |
| 2026-05-07 20:20 | 37.76765 | -25.81141 | 4395 ft | 228 kts | 322° |
| 2026-05-07 20:20 | 37.78043 | -25.82348 | 5330 ft | 230 kts | 328° |
| 2026-05-07 20:21 | 37.79567 | -25.82989 | 6232 ft | 237 kts | 352° |
| 2026-05-07 20:21 | 37.81235 | -25.82741 | 7049 ft | 250 kts | 13° |
| 2026-05-07 20:21 | 37.82757 | -25.81571 | 7867 ft | 268 kts | 38° |
| 2026-05-07 20:21 | 37.83745 | -25.79483 | 8687 ft | 288 kts | 64° |
| 2026-05-07 20:22 | 37.84364 | -25.77047 | 9569 ft | 294 kts | 66° |
| 2026-05-07 20:22 | 37.84736 | -25.74448 | 10273 ft | 311 kts | 79° |
| 2026-05-07 20:22 | 37.84881 | -25.71601 | 10518 ft | 335 kts | 81° |
| 2026-05-07 20:22 | 37.85026 | -25.68552 | 10724 ft | 359 kts | 81° |
| 2026-05-07 20:23 | 37.85175 | -25.65323 | 11119 ft | 373 kts | 81° |
| 2026-05-07 20:23 | 37.85326 | -25.62013 | 11767 ft | 380 kts | 81° |
| 2026-05-07 20:23 | 37.85482 | -25.58658 | 12452 ft | 385 kts | 81° |
| 2026-05-07 20:23 | 37.85645 | -25.55255 | 13093 ft | 390 kts | 81° |
| 2026-05-07 20:24 | 37.85812 | -25.51814 | 13781 ft | 394 kts | 82° |
| 2026-05-07 20:24 | 37.85980 | -25.48339 | 14410 ft | 397 kts | 81° |
| 2026-05-07 20:24 | 37.86150 | -25.44873 | 14989 ft | 402 kts | 81° |
| 2026-05-07 20:24 | 37.86327 | -25.41290 | 15626 ft | 404 kts | 82° |
| 2026-05-07 20:25 | 37.86503 | -25.37721 | 16218 ft | 409 kts | 81° |
| 2026-05-07 20:25 | 37.86679 | -25.34109 | 16795 ft | 413 kts | 82° |
| 2026-05-07 20:25 | 37.86850 | -25.30515 | 17396 ft | 416 kts | 82° |
| 2026-05-07 20:25 | 37.87021 | -25.26835 | 17972 ft | 421 kts | 82° |
| 2026-05-07 20:26 | 37.87189 | -25.23126 | 18540 ft | 423 kts | 82° |
| 2026-05-07 20:26 | 37.87360 | -25.19380 | 19053 ft | 428 kts | 82° |
| 2026-05-07 20:26 | 37.87535 | -25.15611 | 19556 ft | 431 kts | 82° |
| 2026-05-07 20:26 | 37.87712 | -25.11808 | 20086 ft | 434 kts | 82° |
| 2026-05-07 20:27 | 37.87889 | -25.07977 | 20547 ft | 438 kts | 82° |
| 2026-05-07 20:27 | 37.88067 | -25.04117 | 21066 ft | 440 kts | 82° |
| 2026-05-07 20:27 | 37.88245 | -25.00236 | 21563 ft | 443 kts | 83° |
| 2026-05-07 20:27 | 37.88421 | -24.96339 | 22111 ft | 443 kts | 83° |
| 2026-05-07 20:28 | 37.88594 | -24.92432 | 22582 ft | 446 kts | 83° |
| 2026-05-07 20:28 | 37.88764 | -24.88507 | 23024 ft | 449 kts | 83° |
| 2026-05-07 20:28 | 37.88935 | -24.84546 | 23435 ft | 451 kts | 83° |
| 2026-05-07 20:28 | 37.89108 | -24.80565 | 23769 ft | 454 kts | 83° |
| 2026-05-07 20:29 | 37.89280 | -24.76552 | 24095 ft | 457 kts | 83° |
| 2026-05-07 20:29 | 37.89452 | -24.72519 | 24407 ft | 460 kts | 83° |
| 2026-05-07 20:29 | 37.89624 | -24.68458 | 24740 ft | 463 kts | 83° |
| 2026-05-07 20:29 | 37.89795 | -24.64381 | 25077 ft | 465 kts | 83° |
| 2026-05-07 20:30 | 37.89967 | -24.60281 | 25380 ft | 468 kts | 83° |
| 2026-05-07 20:30 | 37.90139 | -24.56159 | 25678 ft | 470 kts | 83° |
| 2026-05-07 20:30 | 37.90309 | -24.52009 | 25971 ft | 473 kts | 83° |
| 2026-05-07 20:30 | 37.90477 | -24.47879 | 26245 ft | 476 kts | 83° |
| 2026-05-07 20:31 | 37.90643 | -24.43682 | 26524 ft | 479 kts | 83° |
| 2026-05-07 20:31 | 37.90809 | -24.39461 | 26796 ft | 481 kts | 83° |
| 2026-05-07 20:31 | 37.90980 | -24.35222 | 27081 ft | 483 kts | 84° |
| 2026-05-07 20:31 | 37.91149 | -24.30968 | 27386 ft | 484 kts | 84° |
| 2026-05-07 20:32 | 37.91315 | -24.26694 | 27641 ft | 487 kts | 84° |
| 2026-05-07 20:32 | 37.91478 | -24.22403 | 27880 ft | 489 kts | 84° |
| 2026-05-07 20:32 | 37.91639 | -24.18084 | 28113 ft | 491 kts | 84° |
| 2026-05-07 20:32 | 37.91800 | -24.13750 | 28334 ft | 493 kts | 84° |
| 2026-05-07 20:33 | 37.91960 | -24.09401 | 28588 ft | 494 kts | 84° |
| 2026-05-07 20:33 | 37.92122 | -24.05039 | 28828 ft | 496 kts | 84° |
| 2026-05-07 20:33 | 37.92286 | -24.00657 | 29081 ft | 498 kts | 84° |
| 2026-05-07 20:33 | 37.92447 | -23.96275 | 29378 ft | 498 kts | 84° |
| 2026-05-07 20:34 | 37.92603 | -23.91946 | 29692 ft | 498 kts | 84° |
| 2026-05-07 20:34 | 37.92761 | -23.87560 | 29982 ft | 498 kts | 84° |
| 2026-05-07 20:34 | 37.92917 | -23.83122 | 30241 ft | 498 kts | 84° |
| 2026-05-07 20:34 | 37.93067 | -23.78777 | 30497 ft | 498 kts | 84° |
| 2026-05-07 20:35 | 37.93217 | -23.74393 | 30767 ft | 499 kts | 84° |
| 2026-05-07 20:35 | 37.93366 | -23.69999 | 31059 ft | 497 kts | 85° |
| 2026-05-07 20:35 | 37.93510 | -23.65628 | 31347 ft | 497 kts | 85° |
| 2026-05-07 20:35 | 37.93653 | -23.61245 | 31608 ft | 497 kts | 85° |
| 2026-05-07 20:36 | 37.93793 | -23.56874 | 31869 ft | 497 kts | 85° |
| 2026-05-07 20:36 | 37.93932 | -23.52499 | 32127 ft | 497 kts | 85° |
| 2026-05-07 20:36 | 37.94071 | -23.48123 | 32377 ft | 497 kts | 85° |
| 2026-05-07 20:36 | 37.94209 | -23.43744 | 32631 ft | 497 kts | 85° |
| 2026-05-07 20:37 | 37.94352 | -23.39367 | 32911 ft | 497 kts | 85° |
| 2026-05-07 20:37 | 37.94493 | -23.34990 | 33177 ft | 497 kts | 85° |
| 2026-05-07 20:37 | 37.94630 | -23.30615 | 33438 ft | 497 kts | 85° |
| 2026-05-07 20:37 | 37.94864 | -23.26300 | 33692 ft | 495 kts | 79° |
| 2026-05-07 20:38 | 37.95559 | -23.22042 | 33908 ft | 491 kts | 70° |
| 2026-05-07 20:38 | 37.96716 | -23.17995 | 34129 ft | 487 kts | 62° |
| 2026-05-07 20:38 | 37.98075 | -23.14065 | 34351 ft | 487 kts | 63° |
| 2026-05-07 20:38 | 37.99427 | -23.10128 | 34591 ft | 487 kts | 63° |
| 2026-05-07 20:39 | 38.00774 | -23.06178 | 34827 ft | 486 kts | 63° |
| 2026-05-07 20:39 | 38.02112 | -23.02242 | 35051 ft | 486 kts | 63° |
| 2026-05-07 20:39 | 38.03449 | -22.98316 | 35256 ft | 485 kts | 63° |
| 2026-05-07 20:39 | 38.04790 | -22.94384 | 35450 ft | 485 kts | 63° |
| 2026-05-07 20:40 | 38.06133 | -22.90446 | 35649 ft | 485 kts | 63° |
| 2026-05-07 20:40 | 38.07471 | -22.86517 | 35836 ft | 485 kts | 63° |
| 2026-05-07 20:40 | 38.08801 | -22.82594 | 36014 ft | 485 kts | 63° |
| 2026-05-07 20:40 | 38.10135 | -22.78652 | 36188 ft | 485 kts | 63° |
| 2026-05-07 20:41 | 38.11465 | -22.74719 | 36361 ft | 485 kts | 64° |
| 2026-05-07 20:41 | 38.12789 | -22.70795 | 36521 ft | 484 kts | 64° |
| 2026-05-07 20:41 | 38.14116 | -22.66858 | 36698 ft | 484 kts | 64° |
| 2026-05-07 20:42 | 38.16753 | -22.59021 | 36774 ft | 487 kts | 64° |
| 2026-05-07 20:42 | 38.19412 | -22.51097 | 36770 ft | 487 kts | 64° |
| 2026-05-07 20:43 | 38.22068 | -22.43177 | 36769 ft | 487 kts | 64° |
| 2026-05-07 20:43 | 38.24718 | -22.35250 | 36763 ft | 486 kts | 64° |
| 2026-05-07 20:44 | 38.27352 | -22.27327 | 36762 ft | 486 kts | 64° |
| 2026-05-07 20:44 | 38.29981 | -22.19394 | 36760 ft | 487 kts | 64° |
| 2026-05-07 20:45 | 38.32613 | -22.11447 | 36757 ft | 487 kts | 64° |
| 2026-05-07 20:45 | 38.35244 | -22.03493 | 36770 ft | 487 kts | 65° |
| 2026-05-07 20:46 | 38.37865 | -21.95539 | 36767 ft | 486 kts | 65° |
| 2026-05-07 20:46 | 38.40461 | -21.87638 | 36763 ft | 486 kts | 65° |
| 2026-05-07 20:47 | 38.43063 | -21.79683 | 36767 ft | 486 kts | 65° |
| 2026-05-07 20:47 | 38.45671 | -21.71717 | 36765 ft | 486 kts | 65° |
| 2026-05-07 20:48 | 38.48266 | -21.63750 | 36762 ft | 485 kts | 65° |
| 2026-05-07 20:48 | 38.50839 | -21.55830 | 36761 ft | 485 kts | 65° |
| 2026-05-07 20:49 | 38.53416 | -21.47865 | 36751 ft | 485 kts | 66° |
| 2026-05-07 20:49 | 38.55991 | -21.39900 | 36749 ft | 485 kts | 66° |
| 2026-05-07 20:50 | 38.58567 | -21.31918 | 36750 ft | 485 kts | 66° |
| 2026-05-07 20:50 | 38.61114 | -21.23972 | 36742 ft | 485 kts | 66° |
| 2026-05-07 20:51 | 38.63677 | -21.15975 | 36741 ft | 485 kts | 66° |
| 2026-05-07 20:51 | 38.66224 | -21.07987 | 36739 ft | 485 kts | 66° |
| 2026-05-07 20:52 | 38.68766 | -20.99984 | 36730 ft | 485 kts | 66° |
| 2026-05-07 20:52 | 38.71304 | -20.91986 | 36736 ft | 485 kts | 66° |
| 2026-05-07 20:53 | 38.73417 | -20.85334 | 36733 ft | 485 kts | 66° |
| 2026-05-07 20:53 | 38.75953 | -20.77316 | 36730 ft | 485 kts | 67° |
| 2026-05-07 20:54 | 38.78892 | -20.68005 | 36724 ft | 485 kts | 67° |
| 2026-05-07 20:54 | 38.81005 | -20.61284 | 36725 ft | 485 kts | 67° |
| 2026-05-07 20:55 | 38.83491 | -20.53318 | 36721 ft | 484 kts | 67° |
| 2026-05-07 20:55 | 38.86002 | -20.45292 | 36714 ft | 484 kts | 68° |
| 2026-05-07 20:56 | 38.88509 | -20.37258 | 36710 ft | 485 kts | 68° |
| 2026-05-07 20:56 | 38.91003 | -20.29221 | 36712 ft | 485 kts | 68° |
| 2026-05-07 20:57 | 38.93491 | -20.21172 | 36706 ft | 485 kts | 68° |
| 2026-05-07 20:57 | 38.95974 | -20.13111 | 36698 ft | 485 kts | 68° |
| 2026-05-07 20:58 | 38.98458 | -20.05045 | 36696 ft | 485 kts | 68° |
| 2026-05-07 20:58 | 39.00717 | -19.96876 | 36696 ft | 486 kts | 74° |
| 2026-05-07 20:59 | 39.02585 | -19.88523 | 36692 ft | 486 kts | 74° |
| 2026-05-07 20:59 | 39.04441 | -19.80161 | 36694 ft | 486 kts | 74° |
| 2026-05-07 21:00 | 39.06285 | -19.71848 | 36682 ft | 487 kts | 74° |
| 2026-05-07 21:00 | 39.08141 | -19.63456 | 36691 ft | 487 kts | 74° |
| 2026-05-07 21:01 | 39.09996 | -19.55060 | 36692 ft | 487 kts | 74° |
| 2026-05-07 21:01 | 39.11845 | -19.46661 | 36694 ft | 487 kts | 74° |
| 2026-05-07 21:02 | 39.13682 | -19.38259 | 36703 ft | 487 kts | 74° |
| 2026-05-07 21:02 | 39.15504 | -19.29871 | 36706 ft | 486 kts | 74° |
| 2026-05-07 21:03 | 39.17317 | -19.21523 | 36713 ft | 486 kts | 74° |
| 2026-05-07 21:03 | 39.19132 | -19.13118 | 36713 ft | 486 kts | 75° |
| 2026-05-07 21:04 | 39.20942 | -19.04725 | 36716 ft | 485 kts | 75° |
| 2026-05-07 21:04 | 39.22744 | -18.96349 | 36725 ft | 484 kts | 75° |
| 2026-05-07 21:05 | 39.24537 | -18.87975 | 36724 ft | 484 kts | 75° |
| 2026-05-07 21:05 | 39.26310 | -18.79644 | 36729 ft | 483 kts | 75° |
| 2026-05-07 21:06 | 39.28081 | -18.71276 | 36727 ft | 483 kts | 75° |
| 2026-05-07 21:06 | 39.29853 | -18.62909 | 36737 ft | 483 kts | 75° |
| 2026-05-07 21:07 | 39.31618 | -18.54527 | 36736 ft | 483 kts | 75° |
| 2026-05-07 21:07 | 39.33369 | -18.46148 | 36736 ft | 483 kts | 75° |
| 2026-05-07 21:08 | 39.35129 | -18.37768 | 36733 ft | 483 kts | 75° |
| 2026-05-07 21:08 | 39.36878 | -18.29383 | 36750 ft | 483 kts | 76° |
| 2026-05-07 21:09 | 39.38613 | -18.20999 | 36752 ft | 483 kts | 76° |
| 2026-05-07 21:09 | 39.40339 | -18.12611 | 36763 ft | 483 kts | 76° |
| 2026-05-07 21:10 | 39.42059 | -18.04225 | 36763 ft | 482 kts | 76° |
| 2026-05-07 21:10 | 39.43778 | -17.95840 | 36771 ft | 482 kts | 76° |
| 2026-05-07 21:11 | 39.45480 | -17.87499 | 36775 ft | 482 kts | 76° |
| 2026-05-07 21:11 | 39.48034 | -17.74916 | 36781 ft | 482 kts | 76° |
| 2026-05-07 21:12 | 39.49725 | -17.66519 | 36784 ft | 481 kts | 76° |
| 2026-05-07 21:12 | 39.51409 | -17.58126 | 36795 ft | 481 kts | 76° |
| 2026-05-07 21:13 | 39.53097 | -17.49745 | 36796 ft | 481 kts | 76° |
| 2026-05-07 21:13 | 39.54776 | -17.41348 | 36798 ft | 481 kts | 77° |
| 2026-05-07 21:14 | 39.56433 | -17.33010 | 36798 ft | 480 kts | 77° |
| 2026-05-07 21:14 | 39.58087 | -17.24620 | 36807 ft | 480 kts | 77° |
| 2026-05-07 21:15 | 39.59732 | -17.16245 | 36817 ft | 479 kts | 77° |
| 2026-05-07 21:15 | 39.61379 | -17.07857 | 36817 ft | 479 kts | 77° |
| 2026-05-07 21:16 | 39.63022 | -16.99482 | 36818 ft | 479 kts | 77° |
| 2026-05-07 21:16 | 39.64653 | -16.91103 | 36822 ft | 479 kts | 77° |
| 2026-05-07 21:17 | 39.66273 | -16.82720 | 36831 ft | 479 kts | 77° |
| 2026-05-07 21:17 | 39.67876 | -16.74392 | 36839 ft | 478 kts | 77° |
| 2026-05-07 21:18 | 39.69487 | -16.66014 | 36839 ft | 478 kts | 78° |
| 2026-05-07 21:18 | 39.71090 | -16.57635 | 36849 ft | 477 kts | 78° |
| 2026-05-07 21:19 | 39.72683 | -16.49258 | 36853 ft | 477 kts | 78° |
| 2026-05-07 21:19 | 39.74278 | -16.40904 | 36858 ft | 476 kts | 78° |
| 2026-05-07 21:20 | 39.75864 | -16.32547 | 36851 ft | 476 kts | 78° |
| 2026-05-07 21:20 | 39.77435 | -16.24194 | 36857 ft | 475 kts | 78° |
| 2026-05-07 21:21 | 39.78988 | -16.15839 | 36863 ft | 475 kts | 79° |
| 2026-05-07 21:21 | 39.80537 | -16.07491 | 36865 ft | 475 kts | 78° |
| 2026-05-07 21:22 | 39.82088 | -15.99204 | 36857 ft | 475 kts | 79° |
| 2026-05-07 21:22 | 39.83638 | -15.90848 | 36873 ft | 474 kts | 79° |
| 2026-05-07 21:23 | 39.85175 | -15.82498 | 36875 ft | 474 kts | 79° |
| 2026-05-07 21:23 | 39.86706 | -15.74143 | 36884 ft | 474 kts | 79° |
| 2026-05-07 21:24 | 39.88232 | -15.65774 | 36884 ft | 474 kts | 79° |
| 2026-05-07 21:24 | 39.89745 | -15.57423 | 36878 ft | 474 kts | 79° |
| 2026-05-07 21:25 | 39.91253 | -15.49118 | 36882 ft | 474 kts | 79° |
| 2026-05-07 21:25 | 39.92769 | -15.40710 | 36890 ft | 474 kts | 80° |
| 2026-05-07 21:26 | 39.94269 | -15.32389 | 36899 ft | 474 kts | 79° |
| 2026-05-07 21:26 | 39.95765 | -15.24026 | 36897 ft | 474 kts | 80° |
| 2026-05-07 21:27 | 39.97246 | -15.15651 | 36907 ft | 474 kts | 80° |
| 2026-05-07 21:27 | 39.98718 | -15.07279 | 36904 ft | 474 kts | 80° |
| 2026-05-07 21:28 | 40.00202 | -14.98902 | 36905 ft | 474 kts | 80° |
| 2026-05-07 21:28 | 40.01708 | -14.90536 | 36891 ft | 474 kts | 80° |
| 2026-05-07 21:29 | 40.03217 | -14.82166 | 36899 ft | 474 kts | 80° |
| 2026-05-07 21:29 | 40.04712 | -14.73801 | 36901 ft | 474 kts | 80° |
| 2026-05-07 21:30 | 40.06202 | -14.65416 | 36907 ft | 474 kts | 80° |
| 2026-05-07 21:30 | 40.07691 | -14.57046 | 36886 ft | 473 kts | 81° |
| 2026-05-07 21:31 | 40.09160 | -14.48661 | 36907 ft | 473 kts | 81° |
| 2026-05-07 21:31 | 40.10620 | -14.40307 | 36912 ft | 473 kts | 81° |
| 2026-05-07 21:32 | 40.12091 | -14.31919 | 36917 ft | 473 kts | 81° |
| 2026-05-07 21:32 | 40.13551 | -14.23527 | 36918 ft | 473 kts | 81° |
| 2026-05-07 21:33 | 40.15002 | -14.15128 | 36909 ft | 473 kts | 82° |
| 2026-05-07 21:33 | 40.16435 | -14.06779 | 36914 ft | 473 kts | 82° |
| 2026-05-07 21:34 | 40.17875 | -13.98380 | 36925 ft | 473 kts | 82° |
| 2026-05-07 21:34 | 40.19317 | -13.89967 | 36928 ft | 473 kts | 82° |
| 2026-05-07 21:35 | 40.20750 | -13.81563 | 36913 ft | 474 kts | 82° |
| 2026-05-07 21:35 | 40.22172 | -13.73136 | 36931 ft | 474 kts | 82° |
| 2026-05-07 21:36 | 40.23585 | -13.64722 | 36933 ft | 474 kts | 82° |
| 2026-05-07 21:36 | 40.24998 | -13.56302 | 36938 ft | 474 kts | 82° |
| 2026-05-07 21:37 | 40.26400 | -13.47876 | 36905 ft | 473 kts | 83° |
| 2026-05-07 21:37 | 40.27563 | -13.40873 | 36918 ft | 474 kts | 83° |
| 2026-05-07 21:38 | 40.29187 | -13.31063 | 36931 ft | 474 kts | 83° |
| 2026-05-07 21:38 | 40.30577 | -13.22619 | 36938 ft | 474 kts | 83° |
| 2026-05-07 21:39 | 40.31725 | -13.15600 | 36943 ft | 474 kts | 83° |
| 2026-05-07 21:39 | 40.33104 | -13.07139 | 36924 ft | 474 kts | 83° |
| 2026-05-07 21:40 | 40.34477 | -12.98691 | 36928 ft | 474 kts | 83° |
| 2026-05-07 21:40 | 40.35841 | -12.90245 | 36936 ft | 474 kts | 83° |
| 2026-05-07 21:41 | 40.37194 | -12.81777 | 36940 ft | 474 kts | 84° |
| 2026-05-07 21:41 | 40.38540 | -12.73318 | 36919 ft | 474 kts | 84° |
| 2026-05-07 21:42 | 40.39874 | -12.64890 | 36932 ft | 474 kts | 84° |
| 2026-05-07 21:42 | 40.41213 | -12.56421 | 36940 ft | 474 kts | 84° |
| 2026-05-07 21:43 | 40.42551 | -12.47943 | 36945 ft | 474 kts | 84° |
| 2026-05-07 21:43 | 40.43879 | -12.39470 | 36907 ft | 474 kts | 84° |
| 2026-05-07 21:44 | 40.45321 | -12.31009 | 36919 ft | 476 kts | 82° |
| 2026-05-07 21:44 | 40.46965 | -12.22564 | 36928 ft | 478 kts | 81° |
| 2026-05-07 21:45 | 40.48620 | -12.14118 | 36935 ft | 478 kts | 81° |
| 2026-05-07 21:45 | 40.50212 | -12.05647 | 36950 ft | 477 kts | 82° |
| 2026-05-07 21:46 | 40.51756 | -11.97161 | 36915 ft | 477 kts | 82° |
| 2026-05-07 21:46 | 40.53313 | -11.88666 | 36928 ft | 478 kts | 82° |
| 2026-05-07 21:47 | 40.54878 | -11.80166 | 36935 ft | 478 kts | 82° |
| 2026-05-07 21:47 | 40.56428 | -11.71720 | 36946 ft | 478 kts | 82° |
| 2026-05-07 21:48 | 40.57976 | -11.63215 | 36936 ft | 478 kts | 82° |
| 2026-05-07 21:48 | 40.59519 | -11.54701 | 36938 ft | 478 kts | 82° |
| 2026-05-07 21:49 | 40.61053 | -11.46177 | 36943 ft | 478 kts | 82° |
| 2026-05-07 21:49 | 40.62580 | -11.37654 | 36946 ft | 478 kts | 82° |
| 2026-05-07 21:50 | 40.64101 | -11.29131 | 36923 ft | 478 kts | 82° |
| 2026-05-07 21:50 | 40.65619 | -11.20604 | 36923 ft | 479 kts | 82° |
| 2026-05-07 21:51 | 40.67131 | -11.12058 | 36927 ft | 479 kts | 82° |
| 2026-05-07 21:51 | 40.68647 | -11.03505 | 36932 ft | 479 kts | 82° |
| 2026-05-07 21:52 | 40.70153 | -10.94946 | 36940 ft | 479 kts | 82° |
| 2026-05-07 21:52 | 40.71638 | -10.86375 | 36926 ft | 480 kts | 82° |
| 2026-05-07 21:53 | 40.72380 | -10.82079 | 36766 ft | 481 kts | 82° |
| 2026-05-07 21:53 | 40.73125 | -10.77780 | 36501 ft | 480 kts | 82° |
| 2026-05-07 21:53 | 40.73868 | -10.73496 | 36242 ft | 480 kts | 82° |
| 2026-05-07 21:53 | 40.74609 | -10.69210 | 35987 ft | 479 kts | 82° |
| 2026-05-07 21:54 | 40.75346 | -10.64935 | 35734 ft | 478 kts | 82° |
| 2026-05-07 21:54 | 40.76085 | -10.60654 | 35482 ft | 478 kts | 82° |
| 2026-05-07 21:54 | 40.76819 | -10.56380 | 35203 ft | 477 kts | 82° |
| 2026-05-07 21:54 | 40.77551 | -10.52094 | 34960 ft | 479 kts | 82° |
| 2026-05-07 21:55 | 40.78280 | -10.47805 | 34719 ft | 479 kts | 82° |
| 2026-05-07 21:55 | 40.79008 | -10.43520 | 34473 ft | 479 kts | 82° |
| 2026-05-07 21:55 | 40.79732 | -10.39232 | 34235 ft | 479 kts | 82° |
| 2026-05-07 21:55 | 40.80455 | -10.34946 | 33802 ft | 478 kts | 82° |
| 2026-05-07 21:56 | 40.81183 | -10.30632 | 32623 ft | 484 kts | 82° |
| 2026-05-07 21:56 | 40.81914 | -10.26291 | 31611 ft | 485 kts | 82° |
| 2026-05-07 21:56 | 40.82649 | -10.21930 | 30497 ft | 489 kts | 82° |
| 2026-05-07 21:56 | 40.83390 | -10.17538 | 29252 ft | 492 kts | 82° |
| 2026-05-07 21:57 | 40.84132 | -10.13114 | 28022 ft | 494 kts | 82° |
| 2026-05-07 21:57 | 40.84874 | -10.08675 | 26719 ft | 496 kts | 82° |
| 2026-05-07 21:57 | 40.85615 | -10.04216 | 25534 ft | 497 kts | 81° |
| 2026-05-07 21:57 | 40.86352 | -9.99788 | 24735 ft | 489 kts | 81° |
| 2026-05-07 21:58 | 40.87077 | -9.95437 | 23850 ft | 484 kts | 81° |
| 2026-05-07 21:58 | 40.87445 | -9.91075 | 22876 ft | 472 kts | 95° |
| 2026-05-07 21:58 | 40.87226 | -9.86785 | 21880 ft | 466 kts | 98° |
| 2026-05-07 21:58 | 40.86954 | -9.82595 | 20895 ft | 460 kts | 98° |
| 2026-05-07 21:59 | 40.86677 | -9.78427 | 19938 ft | 440 kts | 99° |
| 2026-05-07 21:59 | 40.86416 | -9.74484 | 19032 ft | 423 kts | 99° |
| 2026-05-07 21:59 | 40.86168 | -9.70667 | 18135 ft | 411 kts | 99° |
| 2026-05-07 21:59 | 40.85933 | -9.67002 | 17128 ft | 401 kts | 99° |
| 2026-05-07 22:00 | 40.85698 | -9.63361 | 16133 ft | 394 kts | 99° |
| 2026-05-07 22:00 | 40.85465 | -9.59778 | 15177 ft | 388 kts | 99° |
| 2026-05-07 22:00 | 40.85233 | -9.56260 | 14251 ft | 382 kts | 99° |
| 2026-05-07 22:00 | 40.85001 | -9.52785 | 13291 ft | 377 kts | 99° |
| 2026-05-07 22:01 | 40.84766 | -9.49338 | 12288 ft | 374 kts | 99° |
| 2026-05-07 22:01 | 40.84527 | -9.45943 | 11309 ft | 369 kts | 99° |
| 2026-05-07 22:01 | 40.84287 | -9.42585 | 10443 ft | 366 kts | 99° |
| 2026-05-07 22:01 | 40.84059 | -9.39331 | 10105 ft | 341 kts | 99° |
| 2026-05-07 22:02 | 40.83860 | -9.36338 | 9961 ft | 312 kts | 99° |
| 2026-05-07 22:02 | 40.83689 | -9.33599 | 9940 ft | 291 kts | 99° |
| 2026-05-07 22:02 | 40.83529 | -9.30952 | 9947 ft | 288 kts | 99° |
| 2026-05-07 22:02 | 40.83371 | -9.28325 | 9946 ft | 287 kts | 99° |
| 2026-05-07 22:03 | 40.83214 | -9.25696 | 9946 ft | 287 kts | 99° |
| 2026-05-07 22:03 | 40.83057 | -9.23061 | 9944 ft | 287 kts | 99° |
| 2026-05-07 22:03 | 40.82899 | -9.20442 | 9943 ft | 287 kts | 99° |
| 2026-05-07 22:03 | 40.82741 | -9.17822 | 9945 ft | 287 kts | 99° |
| 2026-05-07 22:04 | 40.82583 | -9.15198 | 9948 ft | 287 kts | 99° |
| 2026-05-07 22:04 | 40.82424 | -9.12578 | 9946 ft | 287 kts | 99° |
| 2026-05-07 22:04 | 40.82265 | -9.09955 | 9946 ft | 287 kts | 99° |
| 2026-05-07 22:04 | 40.82110 | -9.07366 | 9934 ft | 285 kts | 99° |
| 2026-05-07 22:05 | 40.81968 | -9.04741 | 9746 ft | 282 kts | 99° |
| 2026-05-07 22:05 | 40.81834 | -9.02199 | 9336 ft | 280 kts | 99° |
| 2026-05-07 22:05 | 40.81695 | -8.99607 | 8910 ft | 279 kts | 99° |
| 2026-05-07 22:05 | 40.81558 | -8.97083 | 8492 ft | 279 kts | 99° |
| 2026-05-07 22:06 | 40.81416 | -8.94536 | 8078 ft | 278 kts | 99° |
| 2026-05-07 22:06 | 40.81271 | -8.91989 | 7648 ft | 277 kts | 99° |
| 2026-05-07 22:06 | 40.81122 | -8.89453 | 7229 ft | 277 kts | 99° |
| 2026-05-07 22:06 | 40.80969 | -8.86921 | 6810 ft | 277 kts | 99° |
| 2026-05-07 22:07 | 40.80813 | -8.84391 | 6387 ft | 276 kts | 99° |
| 2026-05-07 22:07 | 40.80652 | -8.81868 | 6042 ft | 274 kts | 99° |
| 2026-05-07 22:07 | 40.80477 | -8.79363 | 6000 ft | 275 kts | 99° |
| 2026-05-07 22:07 | 40.80293 | -8.76843 | 6005 ft | 276 kts | 99° |
| 2026-05-07 22:08 | 40.80171 | -8.74312 | 6003 ft | 278 kts | 89° |
| 2026-05-07 22:08 | 40.80676 | -8.71844 | 6004 ft | 281 kts | 64° |
| 2026-05-07 22:08 | 40.81881 | -8.69914 | 6003 ft | 266 kts | 39° |
| 2026-05-07 22:08 | 40.83436 | -8.68828 | 6004 ft | 246 kts | 21° |
| 2026-05-07 22:09 | 40.85027 | -8.68030 | 6006 ft | 243 kts | 22° |
| 2026-05-07 22:09 | 40.86600 | -8.67227 | 6007 ft | 242 kts | 22° |
| 2026-05-07 22:09 | 40.88171 | -8.66421 | 5896 ft | 242 kts | 22° |
| 2026-05-07 22:09 | 40.89737 | -8.65620 | 5767 ft | 240 kts | 22° |
| 2026-05-07 22:10 | 40.91300 | -8.64825 | 5556 ft | 241 kts | 22° |
| 2026-05-07 22:10 | 40.92859 | -8.64029 | 5248 ft | 239 kts | 22° |
| 2026-05-07 22:10 | 40.94416 | -8.63230 | 4848 ft | 241 kts | 22° |
| 2026-05-07 22:10 | 40.95998 | -8.62420 | 4349 ft | 245 kts | 21° |
| 2026-05-07 22:11 | 40.97571 | -8.61677 | 4038 ft | 232 kts | 13° |
| 2026-05-07 22:11 | 40.99129 | -8.61472 | 4010 ft | 225 kts | 356° |
| 2026-05-07 22:11 | 41.00653 | -8.61790 | 4007 ft | 224 kts | 348° |
| 2026-05-07 22:11 | 41.02181 | -8.62204 | 4008 ft | 224 kts | 348° |
| 2026-05-07 22:12 | 41.03705 | -8.62610 | 4009 ft | 224 kts | 348° |
| 2026-05-07 22:12 | 41.05225 | -8.63009 | 3836 ft | 227 kts | 348° |
| 2026-05-07 22:12 | 41.06751 | -8.63410 | 3528 ft | 221 kts | 348° |
| 2026-05-07 22:12 | 41.08258 | -8.63803 | 3235 ft | 219 kts | 349° |
| 2026-05-07 22:13 | 41.09748 | -8.64192 | 2943 ft | 217 kts | 349° |
| 2026-05-07 22:13 | 41.11222 | -8.64574 | 2648 ft | 213 kts | 349° |
| 2026-05-07 22:13 | 41.12662 | -8.64948 | 2369 ft | 206 kts | 349° |
| 2026-05-07 22:13 | 41.14025 | -8.65303 | 2130 ft | 192 kts | 349° |
| 2026-05-07 22:14 | 41.15292 | -8.65633 | 1845 ft | 179 kts | 349° |
| 2026-05-07 22:14 | 41.16464 | -8.65939 | 1617 ft | 165 kts | 349° |
| 2026-05-07 22:14 | 41.17547 | -8.66221 | 1401 ft | 152 kts | 349° |
| 2026-05-07 22:14 | 41.18561 | -8.66488 | 1205 ft | 145 kts | 349° |
| 2026-05-07 22:15 | 41.19540 | -8.66747 | 1016 ft | 142 kts | 349° |
| 2026-05-07 22:15 | 41.20495 | -8.66997 | 849 ft | 138 kts | 349° |
| 2026-05-07 22:15 | 41.21435 | -8.67244 | 661 ft | 137 kts | 349° |
| 2026-05-07 22:15 | 41.22368 | -8.67488 | 471 ft | 136 kts | 350° |
| 2026-05-07 22:16 | 41.23297 | -8.67729 | 306 ft | 136 kts | 350° |
| 2026-05-07 22:16 | 41.24199 | -8.67961 | 214 ft | 118 kts | 348° |
| 2026-05-07 22:16 | 41.24829 | -8.68127 | 194 ft | 61 kts | 349° |
| 2026-05-07 22:16 | 41.25064 | -8.68178 | 182 ft | 20 kts | 4° |
| 2026-05-07 22:17 | 41.25191 | -8.68142 | 180 ft | 6 kts | 15° |
| 2026-05-07 22:17 | 41.25238 | -8.68123 | 178 ft | 8 kts | 17° |
| 2026-05-07 22:17 | 41.25288 | -8.68084 | 176 ft | 9 kts | 55° |
| 2026-05-07 22:17 | 41.25271 | -8.68024 | 177 ft | 6 kts | 151° |
| 2026-05-07 22:18 | 41.25254 | -8.68015 | 178 ft | 0 kts | 161° |
| 2026-05-07 22:18 | 41.25105 | -8.67978 | 191 ft | 23 kts | 169° |
| 2026-05-07 22:18 | 41.24931 | -8.67927 | 196 ft | 28 kts | 167° |
| 2026-05-07 22:19 | 41.24748 | -8.67827 | 205 ft | 29 kts | 163° |
| 2026-05-07 22:19 | 41.24565 | -8.67777 | 213 ft | 26 kts | 170° |
| 2026-05-07 22:19 | 41.24392 | -8.67732 | 222 ft | 24 kts | 169° |
| 2026-05-07 22:19 | 41.24279 | -8.67662 | 230 ft | 16 kts | 133° |
| 2026-05-07 22:20 | 41.24203 | -8.67579 | 236 ft | 13 kts | 159° |
| 2026-05-07 22:20 | 41.24118 | -8.67553 | 237 ft | 13 kts | 169° |
| 2026-05-07 22:20 | 41.24011 | -8.67525 | 237 ft | 18 kts | 169° |
| 2026-05-07 22:20 | 41.23921 | -8.67501 | 237 ft | 21 kts | 169° |
| 2026-05-07 22:21 | 41.23784 | -8.67465 | 237 ft | 16 kts | 161° |
| 2026-05-07 22:21 | 41.23714 | -8.67386 | 237 ft | 8 kts | 126° |
| 2026-05-07 22:21 | 41.23716 | -8.67319 | 237 ft | 7 kts | 71° |
| 2026-05-07 22:21 | 41.23731 | -8.67267 | 237 ft | 0 kts | 69° |